Time;durP1;ratioP1;P1;durP2;ratioP2;P2;SDS_P1;SDS_P2;PMS_P1;PMS_P2;Temp;Humidity;BMP_temperature;BMP_pressure;BME280_temperature;BME280_humidity;BME280_pressure;Samples;Min_cycle;Max_cycle;Signal;HPM_P1;HPM_P2
2022/02/14 00:01:30;;;;;;;20.60;10.90;;;;;;;;;;143729;581;46021;-64
2022/02/14 00:03:57;;;;;;;15.20;9.98;;;;;;;;;;143726;574;46011;-64
2022/02/14 00:06:24;;;;;;;14.73;10.18;;;;;;;;;;143728;580;46010;-64
2022/02/14 00:08:51;;;;;;;14.27;9.27;;;;;;;;;;143729;657;46020;-64
2022/02/14 00:11:18;;;;;;;18.42;10.05;;;;;;;;;;143728;673;46021;-64
2022/02/14 00:13:46;;;;;;;15.60;9.00;;;;;;;;;;143727;664;46010;-64
2022/02/14 00:16:13;;;;;;;14.48;9.25;;;;;;;;;;143728;568;46020;-64
2022/02/14 00:18:40;;;;;;;13.73;8.48;;;;;;;;;;143731;652;46021;-64
2022/02/14 00:21:07;;;;;;;14.90;9.00;;;;;;;;;;143729;657;46020;-64
2022/02/14 00:23:34;;;;;;;15.88;8.88;;;;;;;;;;143727;569;46010;-64
2022/02/14 00:26:01;;;;;;;18.55;8.85;;;;;;;;;;143728;639;46021;-64
2022/02/14 00:28:29;;;;;;;17.12;9.02;;;;;;;;;;143731;585;46010;-65
2022/02/14 00:30:56;;;;;;;13.45;9.45;;;;;;;;;;143730;576;46021;-64
2022/02/14 00:33:23;;;;;;;14.07;8.57;;;;;;;;;;143726;650;46010;-64
2022/02/14 00:35:50;;;;;;;16.48;9.10;;;;;;;;;;143728;641;46020;-64
2022/02/14 00:38:17;;;;;;;10.15;7.37;;;;;;;;;;143730;657;46020;-64
2022/02/14 00:40:44;;;;;;;22.40;9.13;;;;;;;;;;143728;633;46021;-64
2022/02/14 00:43:12;;;;;;;13.93;8.20;;;;;;;;;;143727;585;46010;-64
2022/02/14 00:45:40;;;;;;;15.85;8.80;;;;;;;;;;143726;582;46020;-64
2022/02/14 00:48:07;;;;;;;14.05;8.88;;;;;;;;;;143729;565;46021;-64
2022/02/14 00:50:34;;;;;;;16.60;9.05;;;;;;;;;;143725;578;47022;-64
2022/02/14 00:53:01;;;;;;;16.62;10.10;;;;;;;;;;143727;585;46010;-64
2022/02/14 00:55:28;;;;;;;14.65;7.62;;;;;;;;;;143726;591;46021;-64
2022/02/14 00:57:55;;;;;;;16.37;9.63;;;;;;;;;;143731;596;45020;-64
2022/02/14 01:00:22;;;;;;;17.10;9.25;;;;;;;;;;143729;594;46020;-64
2022/02/14 01:02:49;;;;;;;17.08;8.50;;;;;;;;;;143728;572;45997;-64
2022/02/14 01:05:16;;;;;;;14.43;7.62;;;;;;;;;;143727;592;46022;-64
2022/02/14 01:07:43;;;;;;;12.45;8.82;;;;;;;;;;143733;586;45020;-63
2022/02/14 01:10:12;;;;;;;13.38;7.87;;;;;;;;;;143726;655;46022;-64
2022/02/14 01:12:40;;;;;;;15.07;7.87;;;;;;;;;;143728;579;46010;-64
2022/02/14 01:15:08;;;;;;;10.95;6.90;;;;;;;;;;143725;586;46020;-63
2022/02/14 01:17:37;;;;;;;14.63;8.43;;;;;;;;;;143732;587;45021;-63
2022/02/14 01:20:05;;;;;;;15.00;7.72;;;;;;;;;;143727;647;47020;-63
2022/02/14 01:22:33;;;;;;;13.73;8.23;;;;;;;;;;143727;641;46010;-63
2022/02/14 01:25:01;;;;;;;16.30;9.13;;;;;;;;;;143729;591;46020;-63
2022/02/14 01:27:28;;;;;;;14.82;8.23;;;;;;;;;;143729;619;46035;-64
2022/02/14 01:29:55;;;;;;;14.80;8.13;;;;;;;;;;143727;572;46020;-64
2022/02/14 01:32:23;;;;;;;13.73;7.12;;;;;;;;;;143727;570;46023;-63
2022/02/14 01:34:51;;;;;;;13.90;7.95;;;;;;;;;;143729;565;46020;-63
2022/02/14 01:37:18;;;;;;;13.85;7.47;;;;;;;;;;143731;570;46010;-63
2022/02/14 01:39:46;;;;;;;12.70;7.57;;;;;;;;;;143728;649;46021;-63
2022/02/14 01:42:13;;;;;;;10.52;6.55;;;;;;;;;;143727;584;46010;-63
2022/02/14 01:44:47;;;;;;;11.52;6.95;;;;;;;;;;143726;573;46020;-63
2022/02/14 01:47:20;;;;;;;15.77;7.37;;;;;;;;;;143729;565;46021;-62
2022/02/14 01:49:48;;;;;;;15.07;8.60;;;;;;;;;;143726;588;46020;-62
2022/02/14 01:52:16;;;;;;;14.60;8.23;;;;;;;;;;143726;604;46916;-62
2022/02/14 01:54:46;;;;;;;15.07;9.20;;;;;;;;;;143725;577;46021;-62
2022/02/14 01:57:15;;;;;;;14.68;8.60;;;;;;;;;;143729;585;46020;-62
2022/02/14 01:59:43;;;;;;;13.60;8.18;;;;;;;;;;143726;621;47020;-62
2022/02/14 02:02:11;;;;;;;15.75;7.55;;;;;;;;;;143726;564;46029;-62
2022/02/14 02:04:41;;;;;;;13.40;7.53;;;;;;;;;;143726;606;46020;-62
2022/02/14 02:07:08;;;;;;;12.15;7.25;;;;;;;;;;143728;609;46020;-62
2022/02/14 02:09:36;;;;;;;12.70;8.32;;;;;;;;;;143727;608;46021;-62
2022/02/14 02:14:49;;;;;;;11.65;8.30;;;;;;;;;;143727;603;46010;-61
2022/02/14 02:17:16;;;;;;;16.17;8.43;;;;;;;;;;143730;590;46021;-62
2022/02/14 02:19:43;;;;;;;12.43;7.60;;;;;;;;;;143726;569;46020;-62
2022/02/14 02:22:10;;;;;;;10.30;6.82;;;;;;;;;;143726;581;46010;-62
2022/02/14 02:24:48;;;;;;;13.13;8.02;;;;;;;;;;143725;564;46021;-62
2022/02/14 02:27:15;;;;;;;16.50;7.82;;;;;;;;;;143730;578;46018;-62
2022/02/14 02:29:42;;;;;;;14.10;8.23;;;;;;;;;;143725;631;47020;-62
2022/02/14 02:32:11;;;;;;;12.60;7.90;;;;;;;;;;143725;616;46919;-62
2022/02/14 02:34:40;;;;;;;13.75;8.85;;;;;;;;;;143726;573;46020;-63
2022/02/14 02:37:09;;;;;;;11.60;7.90;;;;;;;;;;143730;655;46020;-62
2022/02/14 02:39:37;;;;;;;15.70;7.18;;;;;;;;;;143723;567;46021;-62
2022/02/14 02:42:07;;;;;;;14.18;8.20;;;;;;;;;;143729;631;47010;-63
2022/02/14 02:44:35;;;;;;;13.95;8.77;;;;;;;;;;143727;597;46020;-62
2022/02/14 02:47:04;;;;;;;14.15;8.07;;;;;;;;;;143728;571;46021;-62
2022/02/14 02:49:32;;;;;;;16.02;8.15;;;;;;;;;;143726;596;46023;-62
2022/02/14 02:51:59;;;;;;;15.05;8.30;;;;;;;;;;143727;587;46010;-62
2022/02/14 02:54:27;;;;;;;18.00;9.70;;;;;;;;;;143726;624;46021;-62
2022/02/14 02:56:56;;;;;;;11.50;7.85;;;;;;;;;;143730;630;46010;-62
2022/02/14 02:59:25;;;;;;;18.52;9.30;;;;;;;;;;143724;583;46020;-62
2022/02/14 03:01:52;;;;;;;16.08;8.90;;;;;;;;;;143727;569;46010;-62
2022/02/14 03:04:20;;;;;;;14.43;8.75;;;;;;;;;;143726;638;46020;-62
2022/02/14 03:06:48;;;;;;;15.05;8.68;;;;;;;;;;143729;565;46020;-62
2022/02/14 03:09:15;;;;;;;12.18;7.82;;;;;;;;;;143726;611;46021;-61
2022/02/14 03:11:44;;;;;;;13.02;8.05;;;;;;;;;;143729;601;46020;-62
2022/02/14 03:14:11;;;;;;;13.00;8.57;;;;;;;;;;143726;652;46020;-62
2022/02/14 03:16:39;;;;;;;15.68;8.63;;;;;;;;;;143729;612;46020;-61
2022/02/14 03:19:06;;;;;;;18.50;8.77;;;;;;;;;;143726;600;46020;-61
2022/02/14 03:21:34;;;;;;;16.80;8.50;;;;;;;;;;143729;606;45999;-61
2022/02/14 03:24:02;;;;;;;17.15;8.00;;;;;;;;;;143730;566;46020;-61
2022/02/14 03:26:29;;;;;;;14.13;8.18;;;;;;;;;;143729;594;46020;-61
2022/02/14 03:28:57;;;;;;;14.25;8.35;;;;;;;;;;143724;608;46020;-61
2022/02/14 03:31:25;;;;;;;18.95;9.27;;;;;;;;;;143729;585;46010;-61
2022/02/14 03:33:52;;;;;;;17.17;8.50;;;;;;;;;;143732;574;46020;-61
2022/02/14 03:36:21;;;;;;;14.65;8.43;;;;;;;;;;143730;634;46010;-61
2022/02/14 03:38:49;;;;;;;16.00;8.45;;;;;;;;;;143726;613;46021;-61
2022/02/14 03:41:16;;;;;;;16.02;9.15;;;;;;;;;;143731;582;46010;-61
2022/02/14 03:43:43;;;;;;;16.37;8.95;;;;;;;;;;143726;603;46020;-61
2022/02/14 03:46:10;;;;;;;13.85;8.18;;;;;;;;;;143730;633;46010;-61
2022/02/14 03:48:38;;;;;;;16.25;9.68;;;;;;;;;;143726;593;46020;-61
2022/02/14 03:51:05;;;;;;;16.77;9.00;;;;;;;;;;143730;622;46010;-61
2022/02/14 03:53:32;;;;;;;14.90;8.48;;;;;;;;;;143726;589;46021;-61
2022/02/14 03:55:59;;;;;;;11.48;7.90;;;;;;;;;;143730;596;46010;-61
2022/02/14 03:58:26;;;;;;;15.35;8.52;;;;;;;;;;143726;572;47020;-61
2022/02/14 04:00:53;;;;;;;16.42;9.15;;;;;;;;;;143731;623;46010;-61
2022/02/14 04:03:20;;;;;;;17.75;10.10;;;;;;;;;;143729;569;46020;-61
2022/02/14 04:05:47;;;;;;;15.63;8.70;;;;;;;;;;143730;577;46010;-61
2022/02/14 04:08:15;;;;;;;13.70;8.40;;;;;;;;;;143726;566;46021;-61
2022/02/14 04:10:42;;;;;;;12.65;8.25;;;;;;;;;;143730;633;46010;-61
2022/02/14 04:13:09;;;;;;;15.27;9.23;;;;;;;;;;143729;649;46020;-62
2022/02/14 04:15:36;;;;;;;12.82;8.20;;;;;;;;;;143729;569;46020;-61
2022/02/14 04:18:03;;;;;;;12.80;8.60;;;;;;;;;;143726;597;46023;-61
2022/02/14 04:20:30;;;;;;;24.85;9.30;;;;;;;;;;143730;575;46010;-61
2022/02/14 04:22:57;;;;;;;15.82;7.97;;;;;;;;;;143724;581;46020;-61
2022/02/14 04:25:24;;;;;;;14.95;8.90;;;;;;;;;;143730;651;46010;-61
2022/02/14 04:27:52;;;;;;;13.15;8.20;;;;;;;;;;143726;587;46020;-61
2022/02/14 04:30:19;;;;;;;17.73;9.60;;;;;;;;;;143727;606;46010;-61
2022/02/14 04:32:46;;;;;;;21.25;11.07;;;;;;;;;;143726;569;46021;-61
2022/02/14 04:35:13;;;;;;;29.40;12.63;;;;;;;;;;143730;569;46010;-61
2022/02/14 04:37:40;;;;;;;16.60;10.15;;;;;;;;;;143725;581;47021;-61
2022/02/14 04:40:08;;;;;;;17.77;10.23;;;;;;;;;;143728;601;46010;-61
2022/02/14 04:42:35;;;;;;;39.88;17.80;;;;;;;;;;143727;606;46020;-61
2022/02/14 04:45:02;;;;;;;19.00;11.60;;;;;;;;;;143731;605;45045;-61
2022/02/14 04:47:29;;;;;;;26.52;14.35;;;;;;;;;;143724;583;46023;-61
2022/02/14 04:49:56;;;;;;;22.85;11.75;;;;;;;;;;143731;604;46010;-61
2022/02/14 04:52:23;;;;;;;34.72;15.98;;;;;;;;;;143726;635;46020;-62
2022/02/14 04:54:50;;;;;;;19.58;11.05;;;;;;;;;;143728;571;46021;-61
2022/02/14 04:57:17;;;;;;;17.02;9.60;;;;;;;;;;143725;569;46022;-61
2022/02/14 04:59:44;;;;;;;17.62;10.98;;;;;;;;;;143730;570;46011;-62
2022/02/14 05:02:11;;;;;;;15.98;10.15;;;;;;;;;;143729;582;46021;-62
2022/02/14 05:04:38;;;;;;;20.05;10.38;;;;;;;;;;143730;603;46003;-62
2022/02/14 05:07:06;;;;;;;20.25;10.30;;;;;;;;;;143724;603;47021;-62
2022/02/14 05:09:33;;;;;;;28.20;18.27;;;;;;;;;;143727;639;46010;-62
2022/02/14 05:12:00;;;;;;;27.35;15.32;;;;;;;;;;143724;662;46020;-62
2022/02/14 05:14:28;;;;;;;34.60;23.60;;;;;;;;;;143727;570;47020;-63
2022/02/14 05:16:55;;;;;;;44.63;31.73;;;;;;;;;;143725;595;46023;-62
2022/02/14 05:19:22;;;;;;;33.38;21.30;;;;;;;;;;143726;587;46010;-62
2022/02/14 05:21:49;;;;;;;29.05;17.83;;;;;;;;;;143727;586;46020;-62
2022/02/14 05:24:16;;;;;;;35.10;18.42;;;;;;;;;;143730;591;46010;-62
2022/02/14 05:26:43;;;;;;;18.02;11.77;;;;;;;;;;143727;606;46020;-63
2022/02/14 05:29:10;;;;;;;29.23;15.70;;;;;;;;;;143727;572;46010;-63
2022/02/14 05:31:37;;;;;;;19.23;12.13;;;;;;;;;;143726;602;46021;-62
2022/02/14 05:34:04;;;;;;;18.95;11.63;;;;;;;;;;143729;687;46020;-62
2022/02/14 05:36:32;;;;;;;25.35;14.38;;;;;;;;;;143726;570;46020;-62
2022/02/14 05:38:59;;;;;;;25.35;15.38;;;;;;;;;;143729;581;46021;-62
2022/02/14 05:41:25;;;;;;;27.83;15.60;;;;;;;;;;143727;575;46020;-63
2022/02/14 05:43:52;;;;;;;27.25;16.02;;;;;;;;;;143731;574;46010;-63
2022/02/14 05:46:20;;;;;;;23.48;14.95;;;;;;;;;;143727;615;46020;-64
2022/02/14 05:48:47;;;;;;;27.10;15.25;;;;;;;;;;143728;625;46010;-64
2022/02/14 05:51:16;;;;;;;42.22;20.12;;;;;;;;;;143727;576;46020;-65
2022/02/14 05:53:45;;;;;;;37.65;20.25;;;;;;;;;;143726;594;46021;-64
2022/02/14 05:56:13;;;;;;;43.95;23.00;;;;;;;;;;143727;617;46020;-64
2022/02/14 05:58:41;;;;;;;37.67;20.58;;;;;;;;;;143728;590;46010;-64
2022/02/14 06:01:08;;;;;;;36.08;19.75;;;;;;;;;;143726;574;46021;-65
2022/02/14 06:03:35;;;;;;;32.97;20.37;;;;;;;;;;143731;579;46020;-65
2022/02/14 06:06:02;;;;;;;29.83;16.58;;;;;;;;;;143727;600;46020;-64
2022/02/14 06:08:30;;;;;;;30.65;16.62;;;;;;;;;;143727;569;46011;-64
2022/02/14 06:10:57;;;;;;;38.03;20.75;;;;;;;;;;143728;582;46020;-64
2022/02/14 06:13:24;;;;;;;29.15;18.37;;;;;;;;;;143729;667;46020;-64
2022/02/14 06:15:51;;;;;;;35.35;17.87;;;;;;;;;;143724;586;47020;-64
2022/02/14 06:18:18;;;;;;;23.67;16.08;;;;;;;;;;143723;602;47010;-65
2022/02/14 06:20:45;;;;;;;24.65;14.02;;;;;;;;;;143726;622;46020;-64
2022/02/14 06:23:12;;;;;;;26.12;14.15;;;;;;;;;;143730;585;46013;-64
2022/02/14 06:25:39;;;;;;;26.87;14.45;;;;;;;;;;143727;611;46020;-64
2022/02/14 06:28:06;;;;;;;25.17;15.38;;;;;;;;;;143723;595;47010;-64
2022/02/14 06:30:33;;;;;;;28.48;16.50;;;;;;;;;;143727;603;46021;-64
2022/02/14 06:33:01;;;;;;;27.15;13.30;;;;;;;;;;143730;577;46040;-63
2022/02/14 06:35:28;;;;;;;23.65;14.27;;;;;;;;;;143725;655;46018;-63
2022/02/14 06:37:55;;;;;;;26.37;14.02;;;;;;;;;;143729;646;46044;-63
2022/02/14 06:40:23;;;;;;;22.23;12.48;;;;;;;;;;143727;575;46018;-63
2022/02/14 06:42:50;;;;;;;32.58;18.40;;;;;;;;;;143728;617;46022;-63
2022/02/14 06:45:18;;;;;;;58.13;29.30;;;;;;;;;;143727;594;46019;-63
2022/02/14 06:47:45;;;;;;;82.15;38.13;;;;;;;;;;143727;654;46010;-63
2022/02/14 06:50:12;;;;;;;98.10;51.80;;;;;;;;;;143728;581;46018;-63
2022/02/14 06:52:39;;;;;;;125.05;60.50;;;;;;;;;;143730;596;46023;-64
2022/02/14 06:55:10;;;;;;;94.20;45.75;;;;;;;;;;143726;564;46020;-65
2022/02/14 06:57:37;;;;;;;86.53;43.85;;;;;;;;;;143730;613;46010;-66
2022/02/14 07:00:10;;;;;;;99.87;48.25;;;;;;;;;;143728;594;46018;-66
2022/02/14 07:02:37;;;;;;;81.87;46.60;;;;;;;;;;143729;617;46022;-64
2022/02/14 07:05:04;;;;;;;68.68;39.17;;;;;;;;;;143724;571;47018;-64
2022/02/14 07:07:32;;;;;;;72.85;42.05;;;;;;;;;;143728;585;46010;-64
2022/02/14 07:09:59;;;;;;;50.97;25.62;;;;;;;;;;143727;575;46018;-64
2022/02/14 07:12:26;;;;;;;63.08;33.67;;;;;;;;;;143729;620;46022;-63
2022/02/14 07:14:54;;;;;;;61.10;30.50;;;;;;;;;;143727;632;46019;-63
2022/02/14 07:17:21;;;;;;;54.35;30.02;;;;;;;;;;143728;586;46010;-63
2022/02/14 07:19:48;;;;;;;45.92;24.77;;;;;;;;;;143728;569;46018;-64
2022/02/14 07:22:15;;;;;;;52.55;26.65;;;;;;;;;;143732;628;46010;-63
2022/02/14 07:24:42;;;;;;;59.25;27.83;;;;;;;;;;143726;634;47018;-63
2022/02/14 07:27:09;;;;;;;46.28;25.75;;;;;;;;;;143729;650;46010;-62
2022/02/14 07:29:36;;;;;;;58.35;27.98;;;;;;;;;;143727;635;46019;-62
2022/02/14 07:32:03;;;;;;;43.30;25.25;;;;;;;;;;143732;664;46010;-63
2022/02/14 07:34:30;;;;;;;46.65;24.58;;;;;;;;;;143727;615;46018;-63
2022/02/14 07:37:02;;;;;;;55.25;28.25;;;;;;;;;;143729;653;46010;-63
2022/02/14 07:39:38;;;;;;;75.95;40.30;;;;;;;;;;143727;597;46018;-63
2022/02/14 07:42:06;;;;;;;82.10;42.00;;;;;;;;;;143731;679;46012;-63
2022/02/14 07:44:33;;;;;;;64.60;34.50;;;;;;;;;;143726;570;46018;-63
2022/02/14 07:47:00;;;;;;;61.13;30.85;;;;;;;;;;143728;575;46022;-63
2022/02/14 07:49:27;;;;;;;62.05;30.45;;;;;;;;;;143728;584;46018;-63
2022/02/14 07:51:54;;;;;;;56.75;31.30;;;;;;;;;;143731;589;46013;-63
2022/02/14 07:54:21;;;;;;;58.05;28.52;;;;;;;;;;143728;581;46018;-63
2022/02/14 07:56:48;;;;;;;56.63;31.70;;;;;;;;;;143728;623;46022;-63
2022/02/14 07:59:15;;;;;;;57.05;28.73;;;;;;;;;;143728;709;46019;-63
2022/02/14 08:01:42;;;;;;;68.25;31.80;;;;;;;;;;143729;605;46012;-63
2022/02/14 08:04:09;;;;;;;89.55;43.25;;;;;;;;;;143727;603;46018;-63
2022/02/14 08:06:37;;;;;;;93.40;46.30;;;;;;;;;;143729;620;46011;-63
2022/02/14 08:09:11;;;;;;;74.03;39.20;;;;;;;;;;143727;648;46018;-63
2022/02/14 08:11:38;;;;;;;67.33;37.37;;;;;;;;;;143731;562;46022;-63
2022/02/14 08:14:06;;;;;;;75.90;41.17;;;;;;;;;;143726;646;46019;-63
2022/02/14 08:16:33;;;;;;;75.37;39.55;;;;;;;;;;143728;582;46010;-64
2022/02/14 08:19:00;;;;;;;75.15;40.80;;;;;;;;;;143728;564;46038;-63
2022/02/14 08:21:29;;;;;;;59.20;31.83;;;;;;;;;;143730;616;46020;-63
2022/02/14 08:23:57;;;;;;;56.97;32.00;;;;;;;;;;143727;574;46020;-63
2022/02/14 08:26:24;;;;;;;64.10;33.88;;;;;;;;;;143729;633;46010;-63
2022/02/14 08:28:51;;;;;;;67.95;37.05;;;;;;;;;;143726;572;46020;-63
2022/02/14 08:31:18;;;;;;;42.88;26.37;;;;;;;;;;143731;578;46012;-63
2022/02/14 08:33:45;;;;;;;46.80;21.95;;;;;;;;;;143727;590;47020;-63
2022/02/14 08:36:12;;;;;;;43.78;21.90;;;;;;;;;;143729;627;46010;-63
2022/02/14 08:38:40;;;;;;;48.53;22.00;;;;;;;;;;143728;628;46021;-63
2022/02/14 08:41:07;;;;;;;40.47;21.25;;;;;;;;;;143730;608;46020;-63
2022/02/14 08:43:34;;;;;;;42.97;21.12;;;;;;;;;;143730;618;46021;-64
2022/02/14 08:46:01;;;;;;;38.17;18.55;;;;;;;;;;143728;584;46010;-63
2022/02/14 08:48:28;;;;;;;31.00;17.87;;;;;;;;;;143729;565;46020;-64
2022/02/14 08:50:55;;;;;;;29.60;16.00;;;;;;;;;;143729;583;47012;-64
2022/02/14 08:53:23;;;;;;;35.10;18.40;;;;;;;;;;143726;572;46023;-64
2022/02/14 08:55:50;;;;;;;33.05;17.05;;;;;;;;;;143728;587;46010;-64
2022/02/14 08:58:17;;;;;;;33.08;16.58;;;;;;;;;;143728;638;46020;-64
2022/02/14 09:00:44;;;;;;;30.48;17.77;;;;;;;;;;143731;614;46020;-64
2022/02/14 09:03:11;;;;;;;28.38;17.73;;;;;;;;;;143729;594;46022;-64
2022/02/14 09:05:38;;;;;;;36.33;17.42;;;;;;;;;;143729;575;46010;-64
2022/02/14 09:08:05;;;;;;;28.38;16.95;;;;;;;;;;143728;574;46021;-63
2022/02/14 09:10:32;;;;;;;31.30;18.30;;;;;;;;;;143730;585;46020;-64
2022/02/14 09:12:59;;;;;;;39.67;19.30;;;;;;;;;;143726;577;46021;-64
2022/02/14 09:15:26;;;;;;;38.55;20.85;;;;;;;;;;143727;638;47010;-64
2022/02/14 09:17:53;;;;;;;39.38;20.35;;;;;;;;;;143728;576;46020;-63
2022/02/14 09:20:23;;;;;;;32.42;18.30;;;;;;;;;;143730;570;46013;-63
2022/02/14 09:22:51;;;;;;;33.42;16.73;;;;;;;;;;143726;597;47020;-64
2022/02/14 09:25:19;;;;;;;28.70;18.12;;;;;;;;;;143729;564;46010;-63
2022/02/14 09:27:46;;;;;;;28.58;17.25;;;;;;;;;;143728;587;46020;-64
2022/02/14 09:30:13;;;;;;;40.85;17.83;;;;;;;;;;143732;564;46010;-65
2022/02/14 09:32:40;;;;;;;30.00;14.95;;;;;;;;;;143728;653;46020;-64
2022/02/14 09:35:08;;;;;;;29.17;14.35;;;;;;;;;;143728;630;46011;-65
2022/02/14 09:37:35;;;;;;;26.15;13.40;;;;;;;;;;143729;635;46021;-65
2022/02/14 09:40:03;;;;;;;27.40;14.45;;;;;;;;;;143731;566;45020;-65
2022/02/14 09:42:30;;;;;;;24.00;13.07;;;;;;;;;;143726;570;46021;-65
2022/02/14 09:44:57;;;;;;;28.42;13.23;;;;;;;;;;143728;660;46010;-66
2022/02/14 09:47:25;;;;;;;23.55;11.55;;;;;;;;;;143729;709;46020;-65
2022/02/14 09:49:54;;;;;;;20.83;11.63;;;;;;;;;;143732;589;46010;-64
2022/02/14 09:52:22;;;;;;;25.37;12.93;;;;;;;;;;143729;596;46020;-65
2022/02/14 09:54:49;;;;;;;26.35;12.70;;;;;;;;;;143729;571;46010;-66
2022/02/14 09:57:18;;;;;;;24.50;11.55;;;;;;;;;;143728;611;46020;-64
2022/02/14 09:59:45;;;;;;;28.95;13.88;;;;;;;;;;143730;585;46021;-66
2022/02/14 10:02:24;;;;;;;32.85;17.98;;;;;;;;;;143727;569;47020;-65
2022/02/14 10:05:13;;;;;;;32.60;18.65;;;;;;;;;;143728;589;46011;-65
2022/02/14 10:07:50;;;;;;;36.17;16.95;;;;;;;;;;143727;564;46021;-65
2022/02/14 10:10:25;;;;;;;24.35;14.35;;;;;;;;;;143732;594;46010;-65
2022/02/14 10:12:59;;;;;;;23.65;13.10;;;;;;;;;;143728;579;46021;-66
2022/02/14 10:15:27;;;;;;;23.98;13.20;;;;;;;;;;143727;565;46010;-65
2022/02/14 10:18:05;;;;;;;20.20;12.07;;;;;;;;;;143728;563;46020;-66
2022/02/14 10:20:32;;;;;;;18.05;12.20;;;;;;;;;;143730;615;46018;-65
2022/02/14 10:23:02;;;;;;;19.10;12.45;;;;;;;;;;143727;570;46023;-65
2022/02/14 10:25:43;;;;;;;21.95;11.43;;;;;;;;;;143729;581;46010;-66
2022/02/14 10:28:26;;;;;;;16.25;10.07;;;;;;;;;;143727;618;46021;-65
2022/02/14 10:31:10;;;;;;;17.23;10.13;;;;;;;;;;143731;584;46012;-65
2022/02/14 10:33:57;;;;;;;20.83;9.90;;;;;;;;;;143727;602;46020;-65
2022/02/14 10:36:39;;;;;;;16.20;9.88;;;;;;;;;;143728;595;46010;-65
2022/02/14 10:39:16;;;;;;;19.85;10.10;;;;;;;;;;143727;594;46020;-66
2022/02/14 10:41:45;;;;;;;15.27;9.20;;;;;;;;;;143732;601;46020;-65
2022/02/14 10:47:15;;;;;;;15.55;9.07;;;;;;;;;;143729;605;46020;-65
2022/02/14 10:49:43;;;;;;;12.13;8.05;;;;;;;;;;143729;607;46020;-65
2022/02/14 10:52:13;;;;;;;12.65;8.00;;;;;;;;;;143731;581;46021;-65
2022/02/14 10:54:44;;;;;;;11.82;5.65;;;;;;;;;;143725;770;47022;-65
2022/02/14 10:57:29;;;;;;;15.65;6.30;;;;;;;;;;143727;637;47020;-64
2022/02/14 11:00:12;;;;;;;10.25;6.03;;;;;;;;;;143729;602;46021;-64
2022/02/14 11:02:50;;;;;;;10.07;6.05;;;;;;;;;;143732;564;46010;-66
2022/02/14 11:05:19;;;;;;;15.63;6.85;;;;;;;;;;143728;583;46041;-66
2022/02/14 11:07:46;;;;;;;12.80;6.50;;;;;;;;;;143729;569;46010;-65
2022/02/14 11:10:16;;;;;;;12.35;7.60;;;;;;;;;;143728;577;46020;-66
2022/02/14 11:12:57;;;;;;;13.93;5.93;;;;;;;;;;143732;564;46011;-66
2022/02/14 11:15:26;;;;;;;9.18;5.80;;;;;;;;;;143727;585;47020;-65
2022/02/14 11:18:12;;;;;;;15.43;7.12;;;;;;;;;;143729;589;46010;-65
2022/02/14 11:20:40;;;;;;;11.10;5.97;;;;;;;;;;143728;627;46021;-66
2022/02/14 11:23:09;;;;;;;8.10;5.93;;;;;;;;;;143733;570;45020;-66
2022/02/14 11:25:56;;;;;;;13.30;6.30;;;;;;;;;;143728;565;46020;-66
2022/02/14 11:28:45;;;;;;;13.02;7.10;;;;;;;;;;143729;606;46010;-65
2022/02/14 11:31:27;;;;;;;8.63;5.40;;;;;;;;;;143725;619;46020;-65
2022/02/14 11:33:59;;;;;;;9.05;6.37;;;;;;;;;;143732;576;46010;-64
2022/02/14 11:36:28;;;;;;;12.98;6.12;;;;;;;;;;143728;616;46020;-63
2022/02/14 11:39:09;;;;;;;12.23;7.45;;;;;;;;;;143728;588;46010;-64
2022/02/14 11:41:45;;;;;;;52.62;30.37;;;;;;;;;;143728;617;46019;-65
2022/02/14 11:44:21;;;;;;;31.20;19.12;;;;;;;;;;143729;639;46012;-64
2022/02/14 11:47:17;;;;;;;31.90;20.02;;;;;;;;;;143728;564;46020;-63
2022/02/14 11:49:47;;;;;;;13.43;6.80;;;;;;;;;;143728;601;46010;-63
2022/02/14 11:52:32;;;;;;;20.27;11.77;;;;;;;;;;143728;611;46020;-63
2022/02/14 11:55:02;;;;;;;13.50;7.35;;;;;;;;;;143730;569;46020;-62
2022/02/14 11:57:50;;;;;;;20.10;11.57;;;;;;;;;;143728;586;46021;-62
2022/02/14 12:00:23;;;;;;;20.37;11.95;;;;;;;;;;143727;595;46010;-62
2022/02/14 12:03:13;;;;;;;18.52;11.80;;;;;;;;;;143726;604;46020;-62
2022/02/14 12:05:58;;;;;;;20.65;7.93;;;;;;;;;;143727;614;46021;-62
2022/02/14 12:08:25;;;;;;;13.62;7.05;;;;;;;;;;143726;569;46020;-63
2022/02/14 12:10:57;;;;;;;17.00;9.07;;;;;;;;;;143727;614;46011;-63
2022/02/14 12:13:34;;;;;;;15.40;8.75;;;;;;;;;;143727;615;46021;-63
2022/02/14 12:21:47;;;;;;;12.18;7.22;;;;;;;;;;143727;569;46010;-62
2022/02/14 12:24:23;;;;;;;14.02;6.82;;;;;;;;;;143725;578;46020;-62
2022/02/14 12:26:59;;;;;;;12.10;7.30;;;;;;;;;;143729;567;46020;-62
2022/02/14 12:29:39;;;;;;;13.93;8.65;;;;;;;;;;143725;601;46020;-62
2022/02/14 12:32:14;;;;;;;16.65;7.55;;;;;;;;;;143728;807;46010;-62
2022/02/14 12:34:41;;;;;;;15.13;6.93;;;;;;;;;;143727;566;46020;-62
2022/02/14 12:37:11;;;;;;;14.90;6.87;;;;;;;;;;143728;564;46023;-62
2022/02/14 12:39:41;;;;;;;13.52;6.60;;;;;;;;;;143725;566;46020;-62
2022/02/14 12:42:25;;;;;;;10.02;6.90;;;;;;;;;;143729;760;46011;-62
2022/02/14 12:44:53;;;;;;;13.62;8.05;;;;;;;;;;143728;569;46010;-62
2022/02/14 12:47:23;;;;;;;12.32;6.87;;;;;;;;;;143730;569;46010;-62
2022/02/14 12:50:11;;;;;;;10.38;6.75;;;;;;;;;;143727;602;46021;-62
2022/02/14 12:52:43;;;;;;;13.75;7.95;;;;;;;;;;143727;735;46010;-62
2022/02/14 12:55:10;;;;;;;10.13;6.47;;;;;;;;;;143725;637;46020;-62
2022/02/14 12:57:42;;;;;;;14.60;7.22;;;;;;;;;;143728;677;46021;-62
2022/02/14 13:00:44;;;;;;;12.32;6.57;;;;;;;;;;143726;820;46020;-62
2022/02/14 13:03:16;;;;;;;11.75;6.18;;;;;;;;;;143727;775;46010;-62
2022/02/14 13:05:53;;;;;;;14.63;6.65;;;;;;;;;;143726;601;46021;-62
2022/02/14 13:08:25;;;;;;;9.88;6.10;;;;;;;;;;143728;582;46012;-62
2022/02/14 13:10:53;;;;;;;13.32;5.70;;;;;;;;;;143724;660;46021;-62
2022/02/14 13:13:33;;;;;;;10.38;6.00;;;;;;;;;;143728;570;46010;-62
2022/02/14 13:16:04;;;;;;;12.13;6.07;;;;;;;;;;143726;598;46020;-62
2022/02/14 13:18:38;;;;;;;9.88;6.00;;;;;;;;;;143727;761;46021;-62
2022/02/14 13:21:05;;;;;;;12.35;6.97;;;;;;;;;;143727;600;46020;-61
2022/02/14 13:23:32;;;;;;;10.85;6.32;;;;;;;;;;143727;717;46010;-63
2022/02/14 13:25:59;;;;;;;7.40;4.97;;;;;;;;;;143727;603;46020;-63
2022/02/14 13:28:26;;;;;;;10.68;5.95;;;;;;;;;;143730;583;46010;-62
2022/02/14 13:30:54;;;;;;;62.47;40.50;;;;;;;;;;143726;564;46020;-63
2022/02/14 13:33:23;;;;;;;55.45;33.38;;;;;;;;;;143725;792;46918;-63
2022/02/14 13:35:51;;;;;;;40.22;26.48;;;;;;;;;;143725;594;46021;-61
2022/02/14 13:38:31;;;;;;;45.15;26.65;;;;;;;;;;143727;639;46012;-62
2022/02/14 13:41:02;;;;;;;28.65;18.60;;;;;;;;;;143727;613;46021;-62
2022/02/14 13:43:33;;;;;;;31.00;17.37;;;;;;;;;;143727;569;46010;-62
2022/02/14 13:46:02;;;;;;;20.25;13.18;;;;;;;;;;143726;563;46020;-62
2022/02/14 13:48:37;;;;;;;17.77;10.38;;;;;;;;;;143728;641;46020;-62
2022/02/14 13:51:16;;;;;;;18.90;11.90;;;;;;;;;;143725;618;47020;-62
2022/02/14 13:53:43;;;;;;;13.82;7.68;;;;;;;;;;143726;575;46010;-61
2022/02/14 13:56:16;;;;;;;14.60;6.95;;;;;;;;;;143726;618;46021;-61
2022/02/14 13:58:46;;;;;;;14.43;9.00;;;;;;;;;;143728;571;46029;-62
2022/02/14 14:01:34;;;;;;;13.07;6.68;;;;;;;;;;143725;676;46022;-62
2022/02/14 14:04:25;;;;;;;11.75;7.15;;;;;;;;;;143727;594;46010;-62
2022/02/14 14:07:13;;;;;;;12.88;7.12;;;;;;;;;;143727;642;46020;-62
2022/02/14 14:09:55;;;;;;;12.55;8.30;;;;;;;;;;143728;588;46020;-62
2022/02/14 14:12:25;;;;;;;14.13;7.90;;;;;;;;;;143726;625;46021;-62
2022/02/14 14:14:57;;;;;;;12.40;8.13;;;;;;;;;;143727;588;46010;-61
2022/02/14 14:17:25;;;;;;;12.40;7.40;;;;;;;;;;143726;596;46020;-61
2022/02/14 14:20:00;;;;;;;11.18;7.70;;;;;;;;;;143729;579;46012;-61
2022/02/14 14:22:34;;;;;;;14.93;7.78;;;;;;;;;;143727;639;46020;-61
2022/02/14 14:25:03;;;;;;;13.77;6.85;;;;;;;;;;143726;580;46011;-61
2022/02/14 14:27:32;;;;;;;15.55;7.12;;;;;;;;;;143726;608;46021;-61
2022/02/14 14:29:59;;;;;;;12.68;7.40;;;;;;;;;;143728;576;46020;-61
2022/02/14 14:32:27;;;;;;;12.80;6.80;;;;;;;;;;143726;612;46021;-61
2022/02/14 14:34:54;;;;;;;12.18;6.97;;;;;;;;;;143728;625;46010;-61
2022/02/14 14:37:21;;;;;;;11.93;6.55;;;;;;;;;;143727;578;46020;-60
2022/02/14 14:39:49;;;;;;;10.10;6.47;;;;;;;;;;143729;597;46020;-61
2022/02/14 14:42:16;;;;;;;12.25;6.07;;;;;;;;;;143726;583;46020;-60
2022/02/14 14:44:43;;;;;;;10.50;6.65;;;;;;;;;;143727;564;46010;-61
2022/02/14 14:47:10;;;;;;;13.23;7.12;;;;;;;;;;143726;658;46020;-61
2022/02/14 14:49:37;;;;;;;11.15;7.10;;;;;;;;;;143728;571;46021;-60